Lorraine, Kansas
Current Conditions -  °F | °C
As of 9:15 AM on Wednesday 26 Nov 2014 (Local Time) from KGBD Reporting Station
Broken Clouds Broken Clouds  
Wind Chill: 33°   Ceiling: 11000
Heat Index: 41°   Visibility: 10mi
Dew Point: 25°   Wind: 16mph
Humidity: 53%   Direction: 330°NNW
Pressure: 30.16"   Gusts: 20mph
Location:  38.57°N, 98.32°W
Report Text: KGBD 261515Z AUTO 33014G17KT 10SM FEW041 BKN110 05/M04 A3016 RMK AO1
Loading
Personal Weather Stations






























Interactive Weather Map New forecast layout! Learn more

10-Day Weather Forecast

Advertisements
Track Severe Weather on mobile